createdAt,value
2023-02-04T00:00:21.924Z,1.00
2023-02-04T00:03:09.778Z,1.40
2023-02-04T00:05:37.691Z,1.20
2023-02-04T00:08:05.814Z,1.10
2023-02-04T00:10:34.127Z,1.10
2023-02-04T00:13:02.912Z,1.20
2023-02-04T00:15:31.145Z,1.30
2023-02-04T00:17:59.559Z,1.20
2023-02-04T00:20:27.389Z,1.20
2023-02-04T00:22:55.262Z,1.40
2023-02-04T00:25:23.116Z,1.50
2023-02-04T00:27:51.045Z,1.90
2023-02-04T00:30:19.224Z,1.60
2023-02-04T00:32:47.032Z,1.30
2023-02-04T00:35:14.954Z,1.50
2023-02-04T00:37:42.797Z,1.30
2023-02-04T00:40:11.241Z,1.70
2023-02-04T00:42:40.904Z,1.50
2023-02-04T00:45:09.646Z,1.20
2023-02-04T00:47:37.499Z,1.30
2023-02-04T00:50:06.033Z,1.10
2023-02-04T00:52:33.901Z,1.30
2023-02-04T00:55:01.777Z,1.30
2023-02-04T00:57:29.727Z,1.30
2023-02-04T00:59:57.838Z,1.10
2023-02-04T01:02:25.836Z,1.50
2023-02-04T01:04:53.767Z,1.50
2023-02-04T01:07:21.706Z,1.20
2023-02-04T01:09:49.839Z,1.40
2023-02-04T01:12:17.700Z,1.60
2023-02-04T01:14:45.768Z,1.60
2023-02-04T01:17:13.605Z,1.70
2023-02-04T01:19:41.447Z,1.50
2023-02-04T01:22:09.297Z,1.90
2023-02-04T01:24:37.163Z,1.50
2023-02-04T01:27:23.592Z,1.60
2023-02-04T01:29:51.414Z,1.80
2023-02-04T01:32:19.223Z,1.80
2023-02-04T01:34:47.115Z,1.90
2023-02-04T01:37:15.004Z,1.80
2023-02-04T01:39:42.865Z,1.80
2023-02-04T01:42:11.822Z,2.60
2023-02-04T01:44:40.102Z,2.30
2023-02-04T01:47:08.032Z,2.10
2023-02-04T01:49:35.962Z,2.70
2023-02-04T01:52:04.482Z,3.20
2023-02-04T01:54:32.758Z,4.30
2023-02-04T01:57:00.842Z,5.10
2023-02-04T01:59:28.750Z,6.30
2023-02-04T02:01:56.616Z,6.80
2023-02-04T02:04:33.094Z,6.10
2023-02-04T02:07:06.021Z,5.70
2023-02-04T02:09:34.457Z,5.80
2023-02-04T02:12:03.887Z,5.20
2023-02-04T02:14:31.845Z,6.00
2023-02-04T02:16:59.782Z,6.30
2023-02-04T02:19:33.769Z,6.00
2023-02-04T02:22:06.940Z,7.40
2023-02-04T02:24:36.644Z,5.90
2023-02-04T02:27:08.397Z,7.70
2023-02-04T02:29:38.906Z,6.50
2023-02-04T02:32:08.736Z,7.10
2023-02-04T02:34:37.997Z,7.20
2023-02-04T02:37:09.034Z,6.10
2023-02-04T02:39:39.611Z,6.30
2023-02-04T02:42:07.821Z,6.50
2023-02-04T02:44:35.643Z,6.50
2023-02-04T02:47:03.560Z,7.30
2023-02-04T02:49:33.069Z,6.60
2023-02-04T02:52:01.006Z,4.20
2023-02-04T02:54:31.864Z,6.00
2023-02-04T02:57:02.146Z,5.30
2023-02-04T02:59:30.041Z,4.60
2023-02-04T03:02:01.991Z,4.60
2023-02-04T03:04:35.015Z,4.80
2023-02-04T03:07:03.944Z,4.70
2023-02-04T03:09:33.530Z,4.10
2023-02-04T03:12:02.243Z,4.50
2023-02-04T03:14:30.221Z,4.10
2023-02-04T03:16:59.737Z,3.80
2023-02-04T03:19:28.381Z,3.90
2023-02-04T03:21:57.534Z,2.90
2023-02-04T03:24:25.732Z,3.00
2023-02-04T03:26:53.837Z,3.40
2023-02-04T03:29:21.709Z,3.40
2023-02-04T03:31:49.805Z,3.70
2023-02-04T03:34:17.670Z,2.80
2023-02-04T03:36:45.607Z,2.90
2023-02-04T03:39:13.500Z,2.30
2023-02-04T03:41:41.347Z,2.40
2023-02-04T03:44:09.134Z,2.40
2023-02-04T03:46:37.005Z,2.40
2023-02-04T03:49:04.910Z,2.30
2023-02-04T03:51:32.744Z,2.00
2023-02-04T03:54:00.585Z,2.70
2023-02-04T03:56:28.530Z,2.50
2023-02-04T03:58:56.410Z,2.60
2023-02-04T04:01:24.273Z,2.40
2023-02-04T04:03:52.117Z,2.70
2023-02-04T04:06:19.963Z,2.50
2023-02-04T04:08:47.806Z,2.60
2023-02-04T04:11:15.791Z,2.90
2023-02-04T04:13:43.786Z,2.60
2023-02-04T04:16:11.681Z,2.90
2023-02-04T04:18:39.597Z,2.70
2023-02-04T04:21:07.383Z,3.00
2023-02-04T04:23:35.435Z,2.80
2023-02-04T04:26:03.282Z,2.80
2023-02-04T04:28:31.129Z,2.70
2023-02-04T04:30:59.102Z,2.80
2023-02-04T04:33:27.016Z,2.90
2023-02-04T04:35:54.904Z,2.60
2023-02-04T04:38:22.839Z,3.20
2023-02-04T04:40:50.752Z,2.90
2023-02-04T04:43:18.710Z,2.60
2023-02-04T04:45:46.647Z,2.70
2023-02-04T04:48:14.587Z,2.80
2023-02-04T04:50:42.443Z,2.90
2023-02-04T04:53:11.437Z,2.40
2023-02-04T04:55:39.740Z,3.20
2023-02-04T04:58:08.740Z,3.60
2023-02-04T05:00:36.668Z,3.50
2023-02-04T05:03:04.483Z,3.50
2023-02-04T05:05:32.341Z,3.30
2023-02-04T05:08:00.276Z,3.50
2023-02-04T05:10:28.063Z,3.80
2023-02-04T05:12:55.960Z,3.60
2023-02-04T05:15:23.782Z,4.10
2023-02-04T05:17:51.616Z,4.10
2023-02-04T05:20:19.426Z,4.20
2023-02-04T05:22:47.240Z,4.30
2023-02-04T05:25:16.708Z,4.00
2023-02-04T05:27:45.190Z,3.80
2023-02-04T05:30:13.765Z,4.00
2023-02-04T05:32:41.878Z,4.20
2023-02-04T05:35:09.940Z,3.80
2023-02-04T05:37:37.803Z,4.00
2023-02-04T05:40:06.284Z,4.10
2023-02-04T05:42:34.106Z,4.60
2023-02-04T05:45:01.955Z,4.20
2023-02-04T05:47:29.822Z,3.70
2023-02-04T05:49:57.652Z,4.10
2023-02-04T05:52:25.480Z,4.30
2023-02-04T05:54:53.281Z,4.80
2023-02-04T05:57:21.087Z,4.40
2023-02-04T05:59:48.931Z,4.70
2023-02-04T06:02:16.741Z,3.90
2023-02-04T06:04:44.933Z,4.00
2023-02-04T06:07:12.848Z,4.20
2023-02-04T06:09:40.725Z,4.00
2023-02-04T06:12:11.679Z,3.50
2023-02-04T06:14:40.567Z,4.10
2023-02-04T06:17:08.352Z,4.10
2023-02-04T06:19:36.314Z,3.60
2023-02-04T06:22:04.223Z,3.90
2023-02-04T06:24:32.046Z,3.30
2023-02-04T06:26:59.887Z,4.40
2023-02-04T06:29:27.767Z,4.20
2023-02-04T06:31:55.708Z,4.00
2023-02-04T06:34:23.633Z,4.10
2023-02-04T06:36:51.519Z,3.80
2023-02-04T06:39:21.046Z,3.90
2023-02-04T06:41:48.877Z,3.70
2023-02-04T06:44:16.744Z,4.00
2023-02-04T06:46:44.571Z,4.30
2023-02-04T06:49:12.492Z,4.60
2023-02-04T06:51:40.350Z,5.10
2023-02-04T06:54:08.236Z,4.40
2023-02-04T06:56:36.085Z,3.90
2023-02-04T06:59:04.038Z,3.60
2023-02-04T07:01:31.915Z,4.50
2023-02-04T07:03:59.838Z,4.70
2023-02-04T07:06:27.806Z,4.90
2023-02-04T07:08:55.652Z,5.20
2023-02-04T07:11:23.473Z,4.10
2023-02-04T07:13:51.293Z,4.70
2023-02-04T07:16:19.216Z,5.30
2023-02-04T07:18:47.039Z,5.00
2023-02-04T07:21:14.868Z,4.40
2023-02-04T07:23:42.747Z,4.30
2023-02-04T07:26:10.572Z,4.10
2023-02-04T07:28:38.864Z,4.50
2023-02-04T07:31:07.254Z,5.40
2023-02-04T07:33:35.125Z,5.60
2023-02-04T07:36:03.000Z,4.70
2023-02-04T07:38:31.047Z,3.80
2023-02-04T07:40:58.896Z,3.90
2023-02-04T07:43:26.933Z,4.70
2023-02-04T07:45:54.977Z,3.80
2023-02-04T07:48:22.838Z,3.60
2023-02-04T07:50:50.686Z,3.80
2023-02-04T07:53:18.624Z,3.00
2023-02-04T07:55:46.433Z,5.00
2023-02-04T07:58:14.259Z,6.80
2023-02-04T08:00:42.072Z,5.40
2023-02-04T08:03:10.106Z,4.00
2023-02-04T08:05:38.021Z,4.10
2023-02-04T08:08:05.933Z,3.70
2023-02-04T08:10:34.265Z,4.20
2023-02-04T08:13:02.273Z,4.20
2023-02-04T08:15:30.177Z,3.30
2023-02-04T08:17:58.189Z,3.90
2023-02-04T08:20:26.254Z,4.70
2023-02-04T08:22:54.151Z,6.30
2023-02-04T08:25:22.061Z,5.20
2023-02-04T08:27:49.915Z,4.30
2023-02-04T08:30:18.087Z,3.50
2023-02-04T08:32:45.973Z,4.00
2023-02-04T08:35:13.933Z,2.80
2023-02-04T08:37:41.812Z,3.50
2023-02-04T08:40:10.476Z,3.00
2023-02-04T08:42:38.495Z,4.00
2023-02-04T08:45:06.758Z,3.50
2023-02-04T08:47:34.638Z,3.20
2023-02-04T08:50:02.591Z,2.60
2023-02-04T08:52:30.544Z,3.10
2023-02-04T08:54:58.509Z,3.30
2023-02-04T08:57:26.310Z,3.20
2023-02-04T08:59:54.177Z,3.70
2023-02-04T09:02:21.980Z,3.10
2023-02-04T09:04:49.909Z,3.20
2023-02-04T09:07:17.773Z,3.30
2023-02-04T09:09:45.633Z,3.40
2023-02-04T09:12:13.588Z,3.70
2023-02-04T09:14:41.377Z,3.40
2023-02-04T09:17:09.212Z,3.80
2023-02-04T09:19:37.068Z,4.60
2023-02-04T09:22:04.969Z,6.50
2023-02-04T09:24:32.768Z,4.50
2023-02-04T09:27:00.626Z,4.40
2023-02-04T09:29:28.492Z,4.10
2023-02-04T09:31:56.639Z,3.60
2023-02-04T09:34:24.644Z,3.70
2023-02-04T09:36:52.492Z,5.00
2023-02-04T09:39:20.314Z,4.20
2023-02-04T09:41:48.202Z,3.90
2023-02-04T09:44:19.922Z,3.80
2023-02-04T09:46:50.617Z,3.80
2023-02-04T09:49:18.658Z,3.20
2023-02-04T09:51:47.991Z,3.60
2023-02-04T09:54:18.883Z,3.60
2023-02-04T09:56:47.918Z,3.80
2023-02-04T09:59:21.512Z,3.10
2023-02-04T10:01:59.508Z,2.60
2023-02-04T10:04:28.802Z,3.10
2023-02-04T10:07:00.528Z,3.20
2023-02-04T10:09:28.463Z,3.10
2023-02-04T10:11:56.315Z,3.90
2023-02-04T10:14:24.605Z,3.70
2023-02-04T10:17:01.426Z,3.40
2023-02-04T10:19:30.969Z,3.50
2023-02-04T10:21:59.234Z,3.50
2023-02-04T10:24:30.295Z,3.00
2023-02-04T10:27:09.066Z,4.00
2023-02-04T10:29:37.575Z,3.50
2023-02-04T10:32:05.655Z,3.10
2023-02-04T10:34:35.161Z,2.80
2023-02-04T10:37:14.486Z,3.90
2023-02-04T10:39:43.473Z,3.50
2023-02-04T10:42:24.730Z,3.60
2023-02-04T10:44:53.406Z,4.20
2023-02-04T10:47:24.782Z,5.20
2023-02-04T10:50:04.782Z,3.80
2023-02-04T10:52:39.240Z,2.90
2023-02-04T10:55:13.245Z,3.30
2023-02-04T10:57:43.873Z,3.90
2023-02-04T11:00:17.072Z,3.60
2023-02-04T11:02:49.878Z,4.80
2023-02-04T11:05:20.965Z,2.60
2023-02-04T11:07:50.118Z,3.50
2023-02-04T11:10:24.504Z,3.70
2023-02-04T11:12:55.478Z,3.20
2023-02-04T11:15:48.585Z,3.20
2023-02-04T11:18:21.130Z,3.20
2023-02-04T11:20:50.505Z,3.20
2023-02-04T11:23:27.672Z,3.40
2023-02-04T11:26:22.670Z,2.90
2023-02-04T11:29:16.587Z,2.30
2023-02-04T11:31:57.282Z,2.30
2023-02-04T11:34:29.386Z,2.40
2023-02-04T11:37:04.654Z,3.70
2023-02-04T11:39:43.913Z,4.70
2023-02-04T11:42:20.043Z,3.90
2023-02-04T11:44:55.994Z,3.20
2023-02-04T11:47:25.635Z,4.50
2023-02-04T11:49:59.976Z,3.80
2023-02-04T11:52:27.924Z,4.40
2023-02-04T11:54:59.685Z,4.60
2023-02-04T11:57:27.842Z,4.00
2023-02-04T11:59:55.804Z,4.90
2023-02-04T12:02:26.337Z,4.30
2023-02-04T12:05:09.103Z,4.90
2023-02-04T12:07:37.022Z,7.30
2023-02-04T12:10:34.281Z,6.20
2023-02-04T12:13:13.362Z,3.00
2023-02-04T12:15:41.207Z,6.20
2023-02-04T12:18:12.933Z,3.60
2023-02-04T12:20:40.773Z,4.70
2023-02-04T12:23:08.686Z,7.50
2023-02-04T12:25:36.651Z,3.80
2023-02-04T12:28:04.781Z,2.80
2023-02-04T12:30:32.690Z,4.70
2023-02-04T12:33:00.509Z,3.90
2023-02-04T12:35:28.326Z,3.50
2023-02-04T12:37:56.381Z,3.90
2023-02-04T12:40:24.317Z,3.90
2023-02-04T12:42:52.418Z,2.60
2023-02-04T12:45:20.374Z,2.30
2023-02-04T12:47:48.410Z,3.40
2023-02-04T12:50:24.744Z,3.20
2023-02-04T12:52:54.934Z,3.40
2023-02-04T12:55:24.874Z,4.40
2023-02-04T12:57:52.820Z,4.50
2023-02-04T13:00:21.917Z,6.90
2023-02-04T13:02:50.121Z,8.00
2023-02-04T13:05:18.593Z,5.20
2023-02-04T13:07:46.780Z,5.40
2023-02-04T13:10:14.823Z,2.90
2023-02-04T13:12:42.670Z,5.60
2023-02-04T13:15:11.004Z,4.90
2023-02-04T13:17:38.905Z,2.40
2023-02-04T13:20:07.499Z,3.60
2023-02-04T13:22:35.728Z,3.80
2023-02-04T13:25:04.242Z,3.10
2023-02-04T13:27:32.452Z,3.30
2023-02-04T13:30:00.372Z,3.00
2023-02-04T13:32:28.260Z,4.40
2023-02-04T13:34:56.200Z,4.40
2023-02-04T13:37:24.220Z,4.50
2023-02-04T13:39:52.129Z,4.50
2023-02-04T13:42:19.960Z,4.20
2023-02-04T13:44:47.792Z,3.80
2023-02-04T13:47:15.612Z,4.30
2023-02-04T13:49:43.509Z,5.90
2023-02-04T13:52:11.458Z,5.50
2023-02-04T13:54:39.472Z,6.10
2023-02-04T13:57:07.314Z,6.60
2023-02-04T13:59:35.155Z,5.80
2023-02-04T14:02:03.133Z,11.00
2023-02-04T14:04:31.021Z,7.10
2023-02-04T14:06:58.947Z,9.10
2023-02-04T14:09:26.804Z,9.10
2023-02-04T14:11:54.714Z,9.90
2023-02-04T14:14:22.638Z,9.40
2023-02-04T14:16:50.507Z,8.80
2023-02-04T14:19:18.380Z,10.40
2023-02-04T14:21:46.505Z,8.80
2023-02-04T14:24:14.331Z,7.60
2023-02-04T14:26:42.146Z,8.50
2023-02-04T14:29:11.212Z,9.50
2023-02-04T14:31:39.154Z,10.90
2023-02-04T14:34:07.076Z,8.50
2023-02-04T14:36:34.905Z,12.70
2023-02-04T14:39:02.871Z,11.60
2023-02-04T14:41:31.353Z,7.70
2023-02-04T14:43:59.744Z,8.80
2023-02-04T14:46:28.304Z,7.50
2023-02-04T14:48:56.392Z,6.50
2023-02-04T14:51:24.332Z,5.70
2023-02-04T14:53:52.152Z,5.10
2023-02-04T14:56:20.004Z,4.70
2023-02-04T14:58:47.901Z,5.50
2023-02-04T15:01:15.984Z,7.90
2023-02-04T15:03:43.937Z,7.00
2023-02-04T15:06:11.840Z,6.00
2023-02-04T15:08:39.720Z,6.60
2023-02-04T15:11:07.652Z,7.00
2023-02-04T15:13:35.631Z,5.10
2023-02-04T15:16:05.469Z,5.00
2023-02-04T15:18:33.768Z,4.50
2023-02-04T15:21:01.953Z,4.40
2023-02-04T15:23:30.033Z,6.40
2023-02-04T15:25:58.016Z,7.00
2023-02-04T15:28:27.746Z,6.40
2023-02-04T15:30:55.719Z,4.70
2023-02-04T15:33:23.814Z,4.00
2023-02-04T15:35:51.728Z,3.10
2023-02-04T15:38:19.714Z,2.10
2023-02-04T15:40:47.797Z,3.20
2023-02-04T15:43:15.612Z,4.00
2023-02-04T15:45:43.996Z,6.70
2023-02-04T15:48:11.929Z,5.60
2023-02-04T15:50:39.909Z,5.40
2023-02-04T15:53:07.770Z,7.20
2023-02-04T15:55:35.639Z,6.20
2023-02-04T15:58:03.576Z,6.90
2023-02-04T16:00:31.820Z,6.20
2023-02-04T16:02:59.992Z,6.70
2023-02-04T16:05:28.120Z,6.40
2023-02-04T16:07:55.997Z,6.50
2023-02-04T16:10:23.943Z,7.80
2023-02-04T16:12:52.470Z,6.10
2023-02-04T16:15:20.353Z,7.90
2023-02-04T16:17:48.389Z,7.70
2023-02-04T16:20:16.631Z,7.10
2023-02-04T16:22:44.479Z,6.60
2023-02-04T16:25:12.438Z,6.80
2023-02-04T16:27:40.426Z,5.50
2023-02-04T16:30:09.121Z,6.20
2023-02-04T16:32:37.647Z,5.70
2023-02-04T16:35:06.812Z,5.70
2023-02-04T16:37:35.261Z,6.60
2023-02-04T16:40:04.916Z,5.30
2023-02-04T16:42:32.924Z,5.10
2023-02-04T16:45:01.165Z,5.90
2023-02-04T16:47:29.135Z,6.70
2023-02-04T16:50:00.814Z,5.20
2023-02-04T16:52:28.941Z,7.20
2023-02-04T16:54:57.013Z,7.20
2023-02-04T16:57:25.072Z,10.10
2023-02-04T16:59:52.964Z,10.70
2023-02-04T17:02:20.857Z,11.00
2023-02-04T17:04:48.781Z,8.70
2023-02-04T17:07:16.584Z,11.20
2023-02-04T17:09:44.391Z,9.70
2023-02-04T17:12:12.292Z,8.80
2023-02-04T17:14:41.126Z,5.40
2023-02-04T17:17:09.121Z,6.80
2023-02-04T17:19:37.051Z,7.70
2023-02-04T17:22:05.406Z,6.60
2023-02-04T17:24:33.287Z,5.80
2023-02-04T17:27:03.284Z,5.50
2023-02-04T17:29:31.250Z,5.80
2023-02-04T17:31:59.053Z,5.20
2023-02-04T17:34:26.918Z,4.80
2023-02-04T17:36:54.815Z,5.60
2023-02-04T17:39:22.784Z,5.00
2023-02-04T17:41:50.599Z,5.60
2023-02-04T17:44:20.065Z,5.10
2023-02-04T17:46:48.059Z,5.10
2023-02-04T17:49:16.145Z,5.50
2023-02-04T17:51:44.055Z,6.40
2023-02-04T17:54:12.612Z,6.60
2023-02-04T17:56:40.419Z,6.10
2023-02-04T17:59:11.287Z,6.40
2023-02-04T18:01:41.315Z,5.70
2023-02-04T18:04:12.856Z,5.30
2023-02-04T18:06:41.075Z,6.00
2023-02-04T18:09:15.368Z,5.70
2023-02-04T18:11:44.256Z,6.30
2023-02-04T18:14:20.537Z,5.30
2023-02-04T18:16:48.961Z,6.40
2023-02-04T18:19:21.036Z,6.80
2023-02-04T18:21:49.978Z,4.40
2023-02-04T18:24:32.448Z,4.90
2023-02-04T18:27:04.526Z,5.70
2023-02-04T18:29:35.574Z,5.00
2023-02-04T18:32:15.794Z,4.80
2023-02-04T18:34:46.530Z,4.70
2023-02-04T18:37:25.988Z,4.30
2023-02-04T18:40:08.830Z,4.40
2023-02-04T18:42:44.909Z,5.30
2023-02-04T18:45:20.896Z,5.40
2023-02-04T18:47:49.032Z,5.30
2023-02-04T18:50:33.398Z,5.90
2023-02-04T18:53:19.560Z,5.50
2023-02-04T18:55:56.583Z,5.90
2023-02-04T18:58:35.289Z,6.70
2023-02-04T19:01:12.950Z,6.00
2023-02-04T19:03:52.366Z,6.00
2023-02-04T19:06:37.479Z,5.70
2023-02-04T19:09:17.652Z,6.50
2023-02-04T19:11:48.653Z,7.00
2023-02-04T19:14:34.525Z,6.60
2023-02-04T19:17:14.649Z,7.50
2023-02-04T19:20:02.615Z,6.70
2023-02-04T19:22:49.737Z,9.20
2023-02-04T19:25:33.023Z,7.70
2023-02-04T19:28:03.405Z,8.40
2023-02-04T19:30:31.188Z,6.80
2023-02-04T19:33:10.022Z,7.80
2023-02-04T19:35:46.249Z,6.30
2023-02-04T19:38:43.153Z,6.80
2023-02-04T19:41:27.955Z,6.80
2023-02-04T19:44:08.770Z,4.80
2023-02-04T19:46:36.884Z,4.40
2023-02-04T19:49:23.910Z,4.90
2023-02-04T19:51:54.581Z,3.90
2023-02-04T19:54:25.424Z,3.90
2023-02-04T19:56:54.858Z,4.80
2023-02-04T19:59:25.713Z,5.10
2023-02-04T20:02:16.267Z,5.50
2023-02-04T20:04:49.726Z,4.20
2023-02-04T20:07:21.482Z,6.40
2023-02-04T20:09:59.040Z,6.10
2023-02-04T20:12:29.557Z,6.90
2023-02-04T20:14:58.563Z,4.90
2023-02-04T20:17:39.866Z,6.60
2023-02-04T20:20:20.903Z,6.40
2023-02-04T20:22:54.584Z,7.80
2023-02-04T20:27:58.450Z,7.70
2023-02-04T20:30:29.521Z,6.60
2023-02-04T20:32:59.748Z,6.50
2023-02-04T20:35:33.746Z,6.80
2023-02-04T20:38:11.294Z,6.90
2023-02-04T20:40:39.297Z,6.80
2023-02-04T20:43:15.883Z,6.10
2023-02-04T20:45:57.188Z,6.10
2023-02-04T20:48:37.067Z,5.70
2023-02-04T20:51:15.580Z,6.00
2023-02-04T20:53:55.432Z,5.20
2023-02-04T20:56:34.056Z,4.80
2023-02-04T20:59:14.544Z,5.30
2023-02-04T21:01:44.601Z,5.40
2023-02-04T21:04:20.359Z,6.00
2023-02-04T21:06:53.767Z,5.60
2023-02-04T21:09:27.582Z,5.20
2023-02-04T21:11:56.750Z,5.00
2023-02-04T21:14:26.289Z,4.90
2023-02-04T21:16:54.954Z,4.60
2023-02-04T21:19:24.122Z,4.70
2023-02-04T21:21:52.273Z,5.00
2023-02-04T21:24:20.231Z,3.90
2023-02-04T21:26:48.309Z,4.90
2023-02-04T21:29:16.398Z,4.60
2023-02-04T21:31:46.498Z,5.20
2023-02-04T21:34:15.847Z,4.30
2023-02-04T21:36:43.849Z,5.80
2023-02-04T21:39:11.769Z,5.20
2023-02-04T21:41:39.822Z,5.50
2023-02-04T21:44:07.807Z,4.50
2023-02-04T21:46:35.762Z,4.20
2023-02-04T21:49:04.958Z,4.50
2023-02-04T21:51:32.805Z,6.10
2023-02-04T21:54:03.458Z,5.70
2023-02-04T21:56:31.641Z,5.90
2023-02-04T21:58:59.587Z,5.40
2023-02-04T22:01:27.430Z,5.30
2023-02-04T22:03:55.321Z,5.70
2023-02-04T22:06:23.230Z,6.30
2023-02-04T22:08:51.075Z,5.20
2023-02-04T22:11:18.955Z,4.40
2023-02-04T22:13:46.926Z,4.60
2023-02-04T22:16:14.793Z,4.30
2023-02-04T22:18:42.676Z,4.00
2023-02-04T22:21:10.552Z,4.70
2023-02-04T22:23:39.694Z,4.30
2023-02-04T22:26:07.667Z,5.10
2023-02-04T22:28:35.502Z,5.30
2023-02-04T22:31:03.393Z,4.40
2023-02-04T22:33:31.377Z,4.60
2023-02-04T22:35:59.205Z,4.20
2023-02-04T22:38:27.066Z,4.30
2023-02-04T22:40:54.897Z,3.90
2023-02-04T22:43:22.736Z,4.20
2023-02-04T22:45:50.677Z,4.30
2023-02-04T22:48:18.455Z,3.60
2023-02-04T22:50:46.259Z,3.70
2023-02-04T22:53:14.042Z,4.10
2023-02-04T22:55:41.926Z,4.90
2023-02-04T22:58:09.811Z,6.50
2023-02-04T23:00:37.683Z,4.50
2023-02-04T23:03:05.530Z,5.20
2023-02-04T23:05:33.573Z,6.80
2023-02-04T23:08:01.697Z,9.50
2023-02-04T23:10:29.615Z,12.80
2023-02-04T23:12:57.517Z,13.10
2023-02-04T23:15:25.385Z,10.90
2023-02-04T23:17:53.230Z,13.00
2023-02-04T23:20:21.083Z,8.10
2023-02-04T23:22:48.914Z,8.80
2023-02-04T23:25:16.883Z,9.60
2023-02-04T23:27:44.804Z,11.20
2023-02-04T23:30:14.483Z,6.80
2023-02-04T23:32:42.785Z,5.40
2023-02-04T23:35:10.789Z,4.60
2023-02-04T23:37:38.772Z,5.20
2023-02-04T23:40:07.245Z,5.80
2023-02-04T23:42:35.176Z,5.60
2023-02-04T23:45:03.313Z,5.40
2023-02-04T23:47:31.252Z,5.50
2023-02-04T23:49:59.063Z,5.70
2023-02-04T23:52:26.894Z,6.20
2023-02-04T23:54:55.076Z,5.60
2023-02-04T23:57:23.240Z,4.80
2023-02-04T23:59:51.255Z,5.50
